Time,TemperatureF,DewpointF,PressureIn,WindDirection,WindDirectionDegrees,WindSpeedMPH,WindSpeedGustMPH,Humidity,HourlyPrecipIn,Conditions,Clouds,dailyrainin,SoftwareType,DateUTC
2013-01-20 00:05:00,41.3,41.3,30.29,East,79,0.0,0.0,100,0.00,,,0.00,Wunderground v.1.15,2013-01-20 08:05:00,
2013-01-20 00:10:00,41.3,41.3,30.29,East,79,0.0,1.0,100,0.00,,,0.00,Wunderground v.1.15,2013-01-20 08:10:00,
2013-01-20 00:15:00,41.2,41.2,30.28,East,79,0.0,1.0,100,0.00,,,0.00,Wunderground v.1.15,2013-01-20 08:15:00,
2013-01-20 00:20:00,41.0,41.0,30.28,SE,131,0.0,0.0,100,0.00,,,0.00,Wunderground v.1.15,2013-01-20 08:20:00,
2013-01-20 00:25:00,40.9,40.9,30.28,SE,144,0.0,0.0,100,0.00,,,0.00,Wunderground v.1.15,2013-01-20 08:25:00,
2013-01-20 00:35:00,40.5,40.5,30.28,SSE,150,0.0,0.0,100,0.00,,,0.00,Wunderground v.1.15,2013-01-20 08:35:00,
2013-01-20 00:40:00,40.4,40.4,30.28,SSE,150,0.0,0.0,100,0.00,,,0.00,Wunderground v.1.15,2013-01-20 08:40:00,
2013-01-20 00:45:00,40.3,40.3,30.28,SSE,150,0.0,0.0,100,0.00,,,0.00,Wunderground v.1.15,2013-01-20 08:45:00,
2013-01-20 00:50:00,40.2,40.2,30.28,SE,131,0.0,1.0,100,0.00,,,0.00,Wunderground v.1.15,2013-01-20 08:50:00,
2013-01-20 00:55:00,40.0,40.0,30.28,SE,131,0.0,1.0,100,0.00,,,0.00,Wunderground v.1.15,2013-01-20 08:55:00,
2013-01-20 01:00:00,39.7,39.7,30.28,SE,131,0.0,0.0,100,0.00,,,0.00,Wunderground v.1.15,2013-01-20 09:00:00,
2013-01-20 01:10:00,39.3,39.3,30.28,SE,131,0.0,0.0,100,0.00,,,0.00,Wunderground v.1.15,2013-01-20 09:10:00,
2013-01-20 01:15:00,39.1,39.1,30.28,SE,131,0.0,0.0,100,0.00,,,0.00,Wunderground v.1.15,2013-01-20 09:15:00,
2013-01-20 01:20:00,39.0,39.0,30.28,SE,131,0.0,0.0,100,0.00,,,0.00,Wunderground v.1.15,2013-01-20 09:20:00,
2013-01-20 01:25:00,38.8,38.8,30.28,SE,131,0.0,0.0,100,0.00,,,0.00,Wunderground v.1.15,2013-01-20 09:25:00,
2013-01-20 01:30:00,38.7,38.7,30.28,SE,131,0.0,0.0,100,0.00,,,0.00,Wunderground v.1.15,2013-01-20 09:30:00,
2013-01-20 01:35:00,38.5,38.5,30.28,SE,131,0.0,0.0,100,0.00,,,0.00,Wunderground v.1.15,2013-01-20 09:35:00,
2013-01-20 01:45:00,38.3,38.3,30.28,SE,131,0.0,0.0,100,0.00,,,0.00,Wunderground v.1.15,2013-01-20 09:45:00,
2013-01-20 01:50:00,38.3,38.3,30.28,SE,131,0.0,0.0,100,0.00,,,0.00,Wunderground v.1.15,2013-01-20 09:50:00,
2013-01-20 01:55:00,38.2,38.2,30.28,SE,131,0.0,0.0,100,0.00,,,0.00,Wunderground v.1.15,2013-01-20 09:55:00,
2013-01-20 02:00:00,38.0,38.0,30.28,SE,131,0.0,0.0,100,0.00,,,0.00,Wunderground v.1.15,2013-01-20 10:00:00,
2013-01-20 02:05:00,37.9,37.9,30.28,SE,135,0.0,0.0,100,0.00,,,0.00,Wunderground v.1.15,2013-01-20 10:05:00,
2013-01-20 02:15:00,37.6,37.6,30.28,SE,134,0.0,0.0,100,0.00,,,0.00,Wunderground v.1.15,2013-01-20 10:15:00,
2013-01-20 02:20:00,37.4,37.4,30.29,SE,128,0.0,0.0,100,0.00,,,0.00,Wunderground v.1.15,2013-01-20 10:20:00,
2013-01-20 02:25:00,37.2,37.2,30.29,SE,128,0.0,0.0,100,0.00,,,0.00,Wunderground v.1.15,2013-01-20 10:25:00,
2013-01-20 02:30:00,37.1,37.1,30.29,SE,127,0.0,0.0,100,0.00,,,0.00,Wunderground v.1.15,2013-01-20 10:30:00,
2013-01-20 02:35:00,37.0,37.0,30.29,SE,127,0.0,0.0,100,0.00,,,0.00,Wunderground v.1.15,2013-01-20 10:35:00,
2013-01-20 02:40:00,37.0,37.0,30.29,SE,128,0.0,0.0,100,0.00,,,0.00,Wunderground v.1.15,2013-01-20 10:40:00,
2013-01-20 02:50:00,37.1,37.1,30.29,SE,128,0.0,0.0,100,0.00,,,0.00,Wunderground v.1.15,2013-01-20 10:50:00,
2013-01-20 02:55:00,37.2,37.2,30.28,SE,128,0.0,0.0,100,0.00,,,0.00,Wunderground v.1.15,2013-01-20 10:55:00,
2013-01-20 03:00:00,37.2,37.2,30.29,SE,128,0.0,0.0,100,0.00,,,0.00,Wunderground v.1.15,2013-01-20 11:00:00,
2013-01-20 03:05:00,37.0,37.0,30.28,SE,128,0.0,0.0,100,0.00,,,0.00,Wunderground v.1.15,2013-01-20 11:05:00,
2013-01-20 03:15:00,36.7,36.7,30.28,SE,128,0.0,0.0,100,0.00,,,0.00,Wunderground v.1.15,2013-01-20 11:15:00,
2013-01-20 03:25:00,36.4,36.4,30.28,SE,128,0.0,0.0,100,0.00,,,0.00,Wunderground v.1.15,2013-01-20 11:25:00,
2013-01-20 03:30:00,36.1,36.1,30.28,SE,128,0.0,0.0,100,0.00,,,0.00,Wunderground v.1.15,2013-01-20 11:30:00,
2013-01-20 03:35:00,35.9,35.9,30.28,SE,128,0.0,0.0,100,0.00,,,0.00,Wunderground v.1.15,2013-01-20 11:35:00,
2013-01-20 03:40:00,35.8,35.8,30.28,SE,128,0.0,0.0,100,0.00,,,0.00,Wunderground v.1.15,2013-01-20 11:40:00,
2013-01-20 03:50:00,35.5,35.5,30.28,SE,128,0.0,0.0,100,0.00,,,0.00,Wunderground v.1.15,2013-01-20 11:50:00,
2013-01-20 03:55:00,35.4,35.4,30.28,SE,128,0.0,0.0,100,0.00,,,0.00,Wunderground v.1.15,2013-01-20 11:55:00,
2013-01-20 04:00:00,35.1,35.1,30.28,SE,128,0.0,0.0,100,0.00,,,0.00,Wunderground v.1.15,2013-01-20 12:00:00,
2013-01-20 04:05:00,34.9,34.9,30.28,SE,128,0.0,0.0,100,0.00,,,0.00,Wunderground v.1.15,2013-01-20 12:05:00,
2013-01-20 04:10:00,34.7,34.7,30.28,SE,128,0.0,0.0,100,0.00,,,0.00,Wunderground v.1.15,2013-01-20 12:10:00,
2013-01-20 04:20:00,34.4,34.4,30.27,SE,128,0.0,0.0,100,0.00,,,0.00,Wunderground v.1.15,2013-01-20 12:20:00,
2013-01-20 04:25:00,34.3,34.3,30.27,SE,128,0.0,0.0,100,0.00,,,0.00,Wunderground v.1.15,2013-01-20 12:25:00,
2013-01-20 04:30:00,34.2,34.2,30.27,SE,128,0.0,0.0,100,0.00,,,0.00,Wunderground v.1.15,2013-01-20 12:30:00,
2013-01-20 04:35:00,34.1,34.1,30.27,SE,128,0.0,0.0,100,0.00,,,0.00,Wunderground v.1.15,2013-01-20 12:35:00,
2013-01-20 04:40:00,34.0,34.0,30.28,SE,128,0.0,0.0,100,0.00,,,0.00,Wunderground v.1.15,2013-01-20 12:40:00,
2013-01-20 04:45:00,33.8,33.8,30.28,SE,128,0.0,0.0,100,0.00,,,0.00,Wunderground v.1.15,2013-01-20 12:45:00,
2013-01-20 04:55:00,33.5,33.5,30.27,SE,128,0.0,0.0,100,0.00,,,0.00,Wunderground v.1.15,2013-01-20 12:55:00,
2013-01-20 05:00:00,33.5,33.5,30.27,SE,128,0.0,0.0,100,0.00,,,0.00,Wunderground v.1.15,2013-01-20 13:00:00,
2013-01-20 05:05:00,33.3,33.3,30.27,SE,128,0.0,0.0,100,0.00,,,0.00,Wunderground v.1.15,2013-01-20 13:05:00,
2013-01-20 05:10:00,33.2,33.2,30.27,SE,128,0.0,0.0,100,0.00,,,0.00,Wunderground v.1.15,2013-01-20 13:10:00,
2013-01-20 05:15:00,33.1,33.1,30.27,NNE,30,0.0,1.0,100,0.00,,,0.00,Wunderground v.1.15,2013-01-20 13:15:00,
2013-01-20 05:25:00,32.9,32.9,30.27,NNE,30,0.0,0.0,100,0.00,,,0.00,Wunderground v.1.15,2013-01-20 13:25:00,
2013-01-20 05:30:00,32.9,32.9,30.27,NNE,30,0.0,0.0,100,0.00,,,0.00,Wunderground v.1.15,2013-01-20 13:30:00,
2013-01-20 05:35:00,32.7,32.7,30.27,NNE,30,0.0,0.0,100,0.00,,,0.00,Wunderground v.1.15,2013-01-20 13:35:00,
2013-01-20 05:40:00,32.5,32.5,30.27,NNE,30,0.0,0.0,100,0.00,,,0.00,Wunderground v.1.15,2013-01-20 13:40:00,
2013-01-20 05:45:00,32.4,32.4,30.27,NNE,30,0.0,0.0,100,0.00,,,0.00,Wunderground v.1.15,2013-01-20 13:45:00,
2013-01-20 05:50:00,32.4,32.4,30.27,NNE,30,0.0,0.0,100,0.00,,,0.00,Wunderground v.1.15,2013-01-20 13:50:00,
2013-01-20 06:00:00,32.0,32.0,30.27,NNE,30,0.0,0.0,100,0.00,,,0.00,Wunderground v.1.15,2013-01-20 14:00:00,
2013-01-20 06:05:00,31.9,31.9,30.27,NNE,30,0.0,0.0,100,0.00,,,0.00,Wunderground v.1.15,2013-01-20 14:05:00,
2013-01-20 06:10:00,31.9,31.9,30.27,NNE,30,0.0,0.0,100,0.00,,,0.00,Wunderground v.1.15,2013-01-20 14:10:00,
2013-01-20 06:15:00,31.9,31.9,30.27,NNE,30,0.0,0.0,100,0.00,,,0.00,Wunderground v.1.15,2013-01-20 14:15:00,
2013-01-20 06:25:00,31.6,31.6,30.27,NE,34,0.0,0.0,100,0.00,,,0.00,Wunderground v.1.15,2013-01-20 14:25:00,
2013-01-20 06:30:00,31.6,31.6,30.27,NE,35,0.0,0.0,100,0.00,,,0.00,Wunderground v.1.15,2013-01-20 14:30:00,
2013-01-20 06:35:00,31.6,31.6,30.27,NE,35,0.0,0.0,100,0.00,,,0.00,Wunderground v.1.15,2013-01-20 14:35:00,
2013-01-20 06:40:00,31.6,31.6,30.27,NE,37,0.0,0.0,100,0.00,,,0.00,Wunderground v.1.15,2013-01-20 14:40:00,
2013-01-20 06:50:00,31.5,31.5,30.27,NE,37,0.0,0.0,100,0.00,,,0.00,Wunderground v.1.15,2013-01-20 14:50:00,
2013-01-20 06:55:00,31.4,31.4,30.27,NE,37,0.0,0.0,100,0.00,,,0.00,Wunderground v.1.15,2013-01-20 14:55:00,
2013-01-20 07:00:00,31.4,31.4,30.27,NE,37,0.0,0.0,100,0.00,,,0.00,Wunderground v.1.15,2013-01-20 15:00:00,
2013-01-20 07:05:00,31.4,31.4,30.27,NE,37,0.0,0.0,100,0.00,,,0.00,Wunderground v.1.15,2013-01-20 15:05:00,
2013-01-20 07:10:00,31.3,31.3,30.27,NE,41,0.0,1.0,100,0.00,,,0.00,Wunderground v.1.15,2013-01-20 15:10:00,
2013-01-20 07:20:00,31.3,31.3,30.27,NE,46,0.0,0.0,100,0.00,,,0.00,Wunderground v.1.15,2013-01-20 15:20:00,
2013-01-20 07:25:00,31.2,31.2,30.27,NE,46,0.0,1.0,100,0.00,,,0.00,Wunderground v.1.15,2013-01-20 15:25:00,
2013-01-20 07:30:00,31.1,31.1,30.27,NE,46,0.0,0.0,100,0.00,,,0.00,Wunderground v.1.15,2013-01-20 15:30:00,
2013-01-20 07:35:00,31.1,31.1,30.27,NE,46,0.0,1.0,100,0.00,,,0.00,Wunderground v.1.15,2013-01-20 15:35:00,
2013-01-20 07:40:00,31.0,31.0,30.27,NE,46,0.0,0.0,100,0.00,,,0.00,Wunderground v.1.15,2013-01-20 15:40:00,
2013-01-20 07:45:00,31.0,31.0,30.27,NE,46,0.0,0.0,100,0.00,,,0.00,Wunderground v.1.15,2013-01-20 15:45:00,
2013-01-20 07:55:00,30.9,30.9,30.26,NE,46,0.0,0.0,100,0.00,,,0.00,Wunderground v.1.15,2013-01-20 15:55:00,
2013-01-20 08:00:00,30.8,30.8,30.26,NE,46,0.0,0.0,100,0.00,,,0.00,Wunderground v.1.15,2013-01-20 16:00:00,
2013-01-20 08:05:00,30.9,30.9,30.26,NE,46,0.0,1.0,100,0.00,,,0.00,Wunderground v.1.15,2013-01-20 16:05:00,
2013-01-20 08:10:00,31.0,31.0,30.26,NE,46,0.0,0.0,100,0.00,,,0.00,Wunderground v.1.15,2013-01-20 16:10:00,
2013-01-20 08:15:00,30.9,30.9,30.27,NE,46,0.0,0.0,100,0.00,,,0.00,Wunderground v.1.15,2013-01-20 16:15:00,
2013-01-20 08:25:00,31.0,31.0,30.26,NE,46,0.0,0.0,100,0.00,,,0.00,Wunderground v.1.15,2013-01-20 16:25:00,
2013-01-20 08:30:00,31.0,31.0,30.26,NE,46,0.0,0.0,100,0.00,,,0.00,Wunderground v.1.15,2013-01-20 16:30:00,
2013-01-20 08:35:00,31.1,31.1,30.27,NE,46,0.0,0.0,100,0.00,,,0.00,Wunderground v.1.15,2013-01-20 16:35:00,
2013-01-20 08:40:00,31.2,31.2,30.27,NE,46,0.0,1.0,100,0.00,,,0.00,Wunderground v.1.15,2013-01-20 16:40:00,
2013-01-20 08:45:00,31.3,31.3,30.27,NE,46,0.0,1.0,100,0.00,,,0.00,Wunderground v.1.15,2013-01-20 16:45:00,
2013-01-20 08:50:00,31.3,31.3,30.27,NE,46,0.0,0.0,100,0.00,,,0.00,Wunderground v.1.15,2013-01-20 16:50:00,
2013-01-20 08:55:00,31.3,31.3,30.27,NE,46,0.0,0.0,100,0.00,,,0.00,Wunderground v.1.15,2013-01-20 16:55:00,
2013-01-20 09:05:00,31.4,31.4,30.27,NE,46,0.0,0.0,100,0.00,,,0.00,Wunderground v.1.15,2013-01-20 17:05:00,
2013-01-20 09:10:00,31.6,31.6,30.27,NE,46,0.0,0.0,100,0.00,,,0.00,Wunderground v.1.15,2013-01-20 17:10:00,
2013-01-20 09:15:00,31.8,31.8,30.27,NE,46,0.0,0.0,100,0.00,,,0.00,Wunderground v.1.15,2013-01-20 17:15:00,
2013-01-20 09:20:00,32.0,32.0,30.27,NE,46,0.0,0.0,100,0.00,,,0.00,Wunderground v.1.15,2013-01-20 17:20:00,
2013-01-20 09:25:00,32.2,32.2,30.27,NE,46,0.0,0.0,100,0.00,,,0.00,Wunderground v.1.15,2013-01-20 17:25:00,
2013-01-20 09:35:00,32.9,32.9,30.28,NE,48,0.0,0.0,100,0.00,,,0.00,Wunderground v.1.15,2013-01-20 17:35:00,
2013-01-20 09:40:00,33.5,33.5,30.27,NE,48,0.0,0.0,100,0.00,,,0.00,Wunderground v.1.15,2013-01-20 17:40:00,
2013-01-20 09:45:00,34.1,34.1,30.27,NE,48,0.0,0.0,100,0.00,,,0.00,Wunderground v.1.15,2013-01-20 17:45:00,
2013-01-20 09:50:00,34.5,34.5,30.28,NE,48,0.0,0.0,100,0.00,,,0.00,Wunderground v.1.15,2013-01-20 17:50:00,
2013-01-20 09:55:00,34.8,34.8,30.28,NE,48,0.0,0.0,100,0.00,,,0.00,Wunderground v.1.15,2013-01-20 17:55:00,
2013-01-20 10:00:00,35.2,35.2,30.28,NE,48,0.0,0.0,100,0.00,,,0.00,Wunderground v.1.15,2013-01-20 18:00:00,
2013-01-20 10:10:00,35.3,35.3,30.28,NE,48,0.0,0.0,100,0.00,,,0.00,Wunderground v.1.15,2013-01-20 18:10:00,
2013-01-20 10:15:00,35.4,35.4,30.28,NE,48,0.0,0.0,100,0.00,,,0.00,Wunderground v.1.15,2013-01-20 18:15:00,
2013-01-20 10:20:00,35.5,35.5,30.28,NE,48,0.0,0.0,100,0.00,,,0.00,Wunderground v.1.15,2013-01-20 18:20:00,
2013-01-20 10:25:00,35.5,35.5,30.28,NE,48,0.0,0.0,100,0.00,,,0.00,Wunderground v.1.15,2013-01-20 18:25:00,
2013-01-20 10:30:00,35.7,35.7,30.28,NE,48,0.0,0.0,100,0.00,,,0.00,Wunderground v.1.15,2013-01-20 18:30:00,
2013-01-20 10:35:00,35.9,35.9,30.28,NE,48,0.0,0.0,100,0.00,,,0.00,Wunderground v.1.15,2013-01-20 18:35:00,
2013-01-20 10:45:00,36.5,36.5,30.28,NE,48,0.0,0.0,100,0.00,,,0.00,Wunderground v.1.15,2013-01-20 18:45:00,
2013-01-20 10:50:00,37.3,37.3,30.27,NE,48,0.0,0.0,100,0.00,,,0.00,Wunderground v.1.15,2013-01-20 18:50:00,
2013-01-20 10:55:00,38.5,38.5,30.27,NE,48,0.0,0.0,100,0.00,,,0.00,Wunderground v.1.15,2013-01-20 18:55:00,
2013-01-20 11:00:00,39.3,39.3,30.27,NE,48,0.0,0.0,100,0.00,,,0.00,Wunderground v.1.15,2013-01-20 19:00:00,
2013-01-20 11:05:00,39.7,39.7,30.27,NE,48,0.0,0.0,100,0.00,,,0.00,Wunderground v.1.15,2013-01-20 19:05:00,
2013-01-20 11:15:00,40.0,39.7,30.27,NE,48,0.0,0.0,99,0.00,,,0.00,Wunderground v.1.15,2013-01-20 19:15:00,
2013-01-20 11:20:00,40.1,39.6,30.26,NE,48,0.0,0.0,98,0.00,,,0.00,Wunderground v.1.15,2013-01-20 19:20:00,
2013-01-20 11:25:00,40.1,39.8,30.26,NE,48,0.0,0.0,99,0.00,,,0.00,Wunderground v.1.15,2013-01-20 19:25:00,
2013-01-20 11:30:00,40.2,39.9,30.26,NE,48,0.0,0.0,99,0.00,,,0.00,Wunderground v.1.15,2013-01-20 19:30:00,
2013-01-20 11:35:00,40.2,39.9,30.26,NE,48,0.0,0.0,99,0.00,,,0.00,Wunderground v.1.15,2013-01-20 19:35:00,
2013-01-20 11:40:00,40.2,39.9,30.26,NE,48,0.0,0.0,99,0.00,,,0.00,Wunderground v.1.15,2013-01-20 19:40:00,
2013-01-20 11:50:00,40.4,40.4,30.25,East,87,0.0,0.0,100,0.00,,,0.00,Wunderground v.1.15,2013-01-20 19:50:00,
2013-01-20 11:55:00,40.5,40.5,30.25,East,87,0.0,0.0,100,0.00,,,0.00,Wunderground v.1.15,2013-01-20 19:55:00,
2013-01-20 12:00:00,40.6,40.6,30.25,East,87,0.0,0.0,100,0.00,,,0.00,Wunderground v.1.15,2013-01-20 20:00:00,
2013-01-20 12:05:00,40.8,40.8,30.25,East,87,0.0,0.0,100,0.00,,,0.00,Wunderground v.1.15,2013-01-20 20:05:00,
2013-01-20 12:10:00,41.1,41.1,30.25,East,87,0.0,0.0,100,0.00,,,0.00,Wunderground v.1.15,2013-01-20 20:10:00,
2013-01-20 12:15:00,41.1,41.1,30.24,East,87,0.0,0.0,100,0.00,,,0.00,Wunderground v.1.15,2013-01-20 20:15:00,
2013-01-20 12:35:00,42.4,42.4,30.24,WSW,248,0.0,0.0,100,0.00,,,0.00,Wunderground v.1.15,2013-01-20 20:35:00,
2013-01-20 12:40:00,42.8,42.8,30.24,SW,220,1.0,1.0,100,0.00,,,0.00,Wunderground v.1.15,2013-01-20 20:40:00,
2013-01-20 12:45:00,42.7,42.7,30.24,WSW,240,1.0,1.0,100,0.00,,,0.00,Wunderground v.1.15,2013-01-20 20:45:00,
2013-01-20 12:50:00,43.0,43.0,30.24,WSW,238,1.0,1.0,100,0.00,,,0.00,Wunderground v.1.15,2013-01-20 20:50:00,
2013-01-20 13:00:00,43.3,43.3,30.23,SSW,207,0.0,0.0,100,0.00,,,0.00,Wunderground v.1.15,2013-01-20 21:00:00,
2013-01-20 13:05:00,43.2,42.9,30.23,SSW,207,0.0,0.0,99,0.00,,,0.00,Wunderground v.1.15,2013-01-20 21:05:00,
2013-01-20 13:10:00,43.2,42.9,30.23,WSW,240,0.0,0.0,99,0.00,,,0.00,Wunderground v.1.15,2013-01-20 21:10:00,
2013-01-20 13:15:00,43.3,43.0,30.23,SW,219,0.0,0.0,99,0.00,,,0.00,Wunderground v.1.15,2013-01-20 21:15:00,
2013-01-20 13:25:00,43.6,43.1,30.22,West,264,0.0,0.0,98,0.00,,,0.00,Wunderground v.1.15,2013-01-20 21:25:00,
2013-01-20 13:30:00,43.5,43.2,30.22,West,266,0.0,0.0,99,0.00,,,0.00,Wunderground v.1.15,2013-01-20 21:30:00,
2013-01-20 13:35:00,43.6,43.1,30.22,SW,220,0.0,0.0,98,0.00,,,0.00,Wunderground v.1.15,2013-01-20 21:35:00,
2013-01-20 13:40:00,43.6,43.1,30.22,SW,220,0.0,0.0,98,0.00,,,0.00,Wunderground v.1.15,2013-01-20 21:40:00,
2013-01-20 13:45:00,43.5,43.0,30.22,SW,221,0.0,1.0,98,0.00,,,0.00,Wunderground v.1.15,2013-01-20 21:45:00,
2013-01-20 13:55:00,43.0,42.5,30.22,SW,221,0.0,0.0,98,0.00,,,0.00,Wunderground v.1.15,2013-01-20 21:55:00,
2013-01-20 14:00:00,43.1,42.8,30.21,SW,221,0.0,0.0,99,0.00,,,0.00,Wunderground v.1.15,2013-01-20 22:00:00,
2013-01-20 14:05:00,43.1,42.8,30.21,SW,223,0.0,1.0,99,0.00,,,0.00,Wunderground v.1.15,2013-01-20 22:05:00,
2013-01-20 14:10:00,43.1,42.8,30.21,South,190,0.0,0.0,99,0.00,,,0.00,Wunderground v.1.15,2013-01-20 22:10:00,
2013-01-20 14:20:00,42.8,42.3,30.21,South,190,0.0,0.0,98,0.00,,,0.00,Wunderground v.1.15,2013-01-20 22:20:00,
2013-01-20 14:25:00,42.6,42.3,30.21,South,190,0.0,0.0,99,0.00,,,0.00,Wunderground v.1.15,2013-01-20 22:25:00,
2013-01-20 14:30:00,42.5,42.2,30.21,South,190,0.0,0.0,99,0.00,,,0.00,Wunderground v.1.15,2013-01-20 22:30:00,
2013-01-20 14:35:00,42.5,42.2,30.21,South,190,0.0,0.0,99,0.00,,,0.00,Wunderground v.1.15,2013-01-20 22:35:00,
2013-01-20 14:45:00,42.5,42.5,30.21,South,191,0.0,0.0,100,0.00,,,0.00,Wunderground v.1.15,2013-01-20 22:45:00,
2013-01-20 14:50:00,42.4,42.1,30.20,South,191,0.0,0.0,99,0.00,,,0.00,Wunderground v.1.15,2013-01-20 22:50:00,
2013-01-20 14:55:00,42.3,42.0,30.20,South,191,0.0,0.0,99,0.00,,,0.00,Wunderground v.1.15,2013-01-20 22:55:00,
2013-01-20 15:05:00,42.2,41.9,30.20,South,191,0.0,0.0,99,0.00,,,0.00,Wunderground v.1.15,2013-01-20 23:05:00,
2013-01-20 15:10:00,42.0,41.7,30.20,South,191,0.0,0.0,99,0.00,,,0.00,Wunderground v.1.15,2013-01-20 23:10:00,
2013-01-20 15:15:00,42.0,41.7,30.20,South,191,0.0,0.0,99,0.00,,,0.00,Wunderground v.1.15,2013-01-20 23:15:00,
2013-01-20 15:20:00,41.9,41.9,30.19,South,191,0.0,0.0,100,0.00,,,0.00,Wunderground v.1.15,2013-01-20 23:20:00,
2013-01-20 15:25:00,41.9,41.9,30.19,South,191,0.0,0.0,100,0.00,,,0.00,Wunderground v.1.15,2013-01-20 23:25:00,
2013-01-20 15:35:00,41.8,41.8,30.19,South,191,0.0,0.0,100,0.00,,,0.00,Wunderground v.1.15,2013-01-20 23:35:00,
2013-01-20 15:40:00,41.8,41.8,30.19,South,191,0.0,0.0,100,0.00,,,0.00,Wunderground v.1.15,2013-01-20 23:40:00,
2013-01-20 15:45:00,41.7,41.7,30.19,South,191,0.0,0.0,100,0.00,,,0.00,Wunderground v.1.15,2013-01-20 23:45:00,
2013-01-20 15:50:00,41.7,41.7,30.19,South,191,0.0,0.0,100,0.00,,,0.00,Wunderground v.1.15,2013-01-20 23:50:00,
2013-01-20 15:55:00,41.6,41.6,30.19,South,191,0.0,0.0,100,0.00,,,0.00,Wunderground v.1.15,2013-01-20 23:55:00,
2013-01-20 16:05:00,41.2,41.2,30.19,South,191,0.0,0.0,100,0.00,,,0.00,Wunderground v.1.15,2013-01-21 00:05:00,
2013-01-20 16:10:00,41.2,41.2,30.19,South,190,0.0,0.0,100,0.00,,,0.00,Wunderground v.1.15,2013-01-21 00:10:00,
2013-01-20 16:15:00,41.0,41.0,30.19,South,191,0.0,0.0,100,0.00,,,0.00,Wunderground v.1.15,2013-01-21 00:15:00,
2013-01-20 16:20:00,40.9,40.9,30.19,South,191,0.0,0.0,100,0.00,,,0.00,Wunderground v.1.15,2013-01-21 00:20:00,
2013-01-20 16:25:00,40.8,40.8,30.19,South,191,0.0,0.0,100,0.00,,,0.00,Wunderground v.1.15,2013-01-21 00:25:00,
2013-01-20 16:35:00,40.4,40.4,30.19,South,191,0.0,0.0,100,0.00,,,0.00,Wunderground v.1.15,2013-01-21 00:35:00,
2013-01-20 16:40:00,40.1,40.1,30.19,South,191,0.0,0.0,100,0.00,,,0.00,Wunderground v.1.15,2013-01-21 00:40:00,
2013-01-20 16:45:00,39.8,39.8,30.19,South,190,0.0,0.0,100,0.00,,,0.00,Wunderground v.1.15,2013-01-21 00:45:00,
2013-01-20 16:55:00,39.5,39.5,30.19,South,191,0.0,0.0,100,0.00,,,0.00,Wunderground v.1.15,2013-01-21 00:55:00,
2013-01-20 17:00:00,39.3,39.3,30.20,South,191,0.0,0.0,100,0.00,,,0.00,Wunderground v.1.15,2013-01-21 01:00:00,
2013-01-20 17:05:00,39.2,39.2,30.20,South,191,0.0,0.0,100,0.00,,,0.00,Wunderground v.1.15,2013-01-21 01:05:00,
2013-01-20 17:10:00,39.2,39.2,30.20,South,191,0.0,0.0,100,0.00,,,0.00,Wunderground v.1.15,2013-01-21 01:10:00,
2013-01-20 17:15:00,39.1,39.1,30.20,South,191,0.0,0.0,100,0.00,,,0.00,Wunderground v.1.15,2013-01-21 01:15:00,
2013-01-20 17:20:00,38.9,38.9,30.19,South,191,0.0,0.0,100,0.00,,,0.00,Wunderground v.1.15,2013-01-21 01:20:00,
2013-01-20 17:30:00,38.4,38.4,30.20,South,190,0.0,0.0,100,0.00,,,0.00,Wunderground v.1.15,2013-01-21 01:30:00,
2013-01-20 17:35:00,38.2,38.2,30.20,South,190,0.0,0.0,100,0.00,,,0.00,Wunderground v.1.15,2013-01-21 01:35:00,
2013-01-20 17:40:00,37.8,37.5,30.20,South,190,0.0,0.0,99,0.00,,,0.00,Wunderground v.1.15,2013-01-21 01:40:00,
2013-01-20 17:45:00,37.5,37.2,30.20,South,190,0.0,0.0,99,0.00,,,0.00,Wunderground v.1.15,2013-01-21 01:45:00,
2013-01-20 17:50:00,37.1,36.8,30.20,South,190,0.0,0.0,99,0.00,,,0.00,Wunderground v.1.15,2013-01-21 01:50:00,
2013-01-20 17:55:00,36.8,36.5,30.20,South,190,0.0,0.0,99,0.00,,,0.00,Wunderground v.1.15,2013-01-21 01:55:00,
2013-01-20 18:05:00,36.5,36.2,30.20,South,190,0.0,0.0,99,0.00,,,0.00,Wunderground v.1.15,2013-01-21 02:05:00,
2013-01-20 18:10:00,36.3,36.3,30.20,South,190,0.0,0.0,100,0.00,,,0.00,Wunderground v.1.15,2013-01-21 02:10:00,
2013-01-20 18:15:00,36.1,35.8,30.20,South,190,0.0,0.0,99,0.00,,,0.00,Wunderground v.1.15,2013-01-21 02:15:00,
2013-01-20 18:20:00,35.9,35.6,30.20,South,190,0.0,0.0,99,0.00,,,0.00,Wunderground v.1.15,2013-01-21 02:20:00,
2013-01-20 18:25:00,35.7,35.4,30.20,South,190,0.0,0.0,99,0.00,,,0.00,Wunderground v.1.15,2013-01-21 02:25:00,
2013-01-20 18:35:00,35.5,35.5,30.21,South,190,0.0,0.0,100,0.00,,,0.00,Wunderground v.1.15,2013-01-21 02:35:00,
2013-01-20 18:40:00,35.3,35.0,30.20,South,190,0.0,0.0,99,0.00,,,0.00,Wunderground v.1.15,2013-01-21 02:40:00,
2013-01-20 18:45:00,35.2,35.2,30.20,ESE,114,0.0,0.0,100,0.00,,,0.00,Wunderground v.1.15,2013-01-21 02:45:00,
2013-01-20 18:55:00,35.2,35.2,30.21,ESE,114,0.0,0.0,100,0.00,,,0.00,Wunderground v.1.15,2013-01-21 02:55:00,
2013-01-20 19:00:00,34.9,34.9,30.21,ESE,114,0.0,0.0,100,0.00,,,0.00,Wunderground v.1.15,2013-01-21 03:00:00,
2013-01-20 19:05:00,35.0,35.0,30.21,ESE,114,0.0,0.0,100,0.00,,,0.00,Wunderground v.1.15,2013-01-21 03:05:00,
2013-01-20 19:10:00,35.1,35.1,30.21,ESE,114,0.0,0.0,100,0.00,,,0.00,Wunderground v.1.15,2013-01-21 03:10:00,
2013-01-20 19:15:00,35.0,35.0,30.21,ESE,114,0.0,0.0,100,0.00,,,0.00,Wunderground v.1.15,2013-01-21 03:15:00,
2013-01-20 19:25:00,34.8,34.8,30.21,ESE,114,0.0,0.0,100,0.00,,,0.00,Wunderground v.1.15,2013-01-21 03:25:00,
2013-01-20 19:30:00,34.7,34.7,30.21,ESE,115,0.0,0.0,100,0.00,,,0.00,Wunderground v.1.15,2013-01-21 03:30:00,
2013-01-20 19:35:00,34.6,34.6,30.21,ESE,114,0.0,0.0,100,0.00,,,0.00,Wunderground v.1.15,2013-01-21 03:35:00,
2013-01-20 19:40:00,34.5,34.5,30.21,ESE,114,0.0,0.0,100,0.00,,,0.00,Wunderground v.1.15,2013-01-21 03:40:00,
2013-01-20 19:45:00,34.4,34.4,30.20,ESE,114,0.0,0.0,100,0.00,,,0.00,Wunderground v.1.15,2013-01-21 03:45:00,
2013-01-20 19:50:00,34.3,34.3,30.21,ESE,115,0.0,0.0,100,0.00,,,0.00,Wunderground v.1.15,2013-01-21 03:50:00,
2013-01-20 20:00:00,34.1,34.1,30.20,ESE,114,0.0,0.0,100,0.00,,,0.00,Wunderground v.1.15,2013-01-21 04:00:00,
2013-01-20 20:05:00,34.1,34.1,30.20,ESE,108,0.0,0.0,100,0.00,,,0.00,Wunderground v.1.15,2013-01-21 04:05:00,
2013-01-20 20:10:00,34.0,34.0,30.20,ESE,108,0.0,0.0,100,0.00,,,0.00,Wunderground v.1.15,2013-01-21 04:10:00,
2013-01-20 20:15:00,33.8,33.8,30.20,ESE,105,0.0,0.0,100,0.00,,,0.00,Wunderground v.1.15,2013-01-21 04:15:00,
2013-01-20 20:20:00,33.7,33.7,30.20,ESE,105,0.0,0.0,100,0.00,,,0.00,Wunderground v.1.15,2013-01-21 04:20:00,
2013-01-20 20:25:00,33.5,33.5,30.20,ESE,105,0.0,0.0,100,0.00,,,0.00,Wunderground v.1.15,2013-01-21 04:25:00,
2013-01-20 20:30:00,33.5,33.5,30.20,ESE,105,0.0,0.0,100,0.00,,,0.00,Wunderground v.1.15,2013-01-21 04:30:00,
2013-01-20 20:40:00,33.3,33.3,30.20,ESE,104,0.0,0.0,100,0.00,,,0.00,Wunderground v.1.15,2013-01-21 04:40:00,
2013-01-20 20:45:00,33.2,33.2,30.20,ESE,104,0.0,0.0,100,0.00,,,0.00,Wunderground v.1.15,2013-01-21 04:45:00,
2013-01-20 20:50:00,33.2,33.2,30.20,ESE,104,0.0,0.0,100,0.00,,,0.00,Wunderground v.1.15,2013-01-21 04:50:00,
2013-01-20 20:55:00,33.1,33.1,30.20,ESE,104,0.0,0.0,100,0.00,,,0.00,Wunderground v.1.15,2013-01-21 04:55:00,
2013-01-20 21:05:00,33.0,33.0,30.20,ESE,104,0.0,0.0,100,0.00,,,0.00,Wunderground v.1.15,2013-01-21 05:05:00,
2013-01-20 21:10:00,32.9,32.9,30.20,ESE,104,0.0,0.0,100,0.00,,,0.00,Wunderground v.1.15,2013-01-21 05:10:00,
2013-01-20 21:15:00,32.9,32.9,30.20,ESE,104,0.0,0.0,100,0.00,,,0.00,Wunderground v.1.15,2013-01-21 05:15:00,
2013-01-20 21:20:00,32.9,32.9,30.20,ESE,104,0.0,0.0,100,0.00,,,0.00,Wunderground v.1.15,2013-01-21 05:20:00,
2013-01-20 21:25:00,32.9,32.9,30.20,ENE,68,0.0,1.0,100,0.00,,,0.00,Wunderground v.1.15,2013-01-21 05:25:00,
2013-01-20 21:35:00,33.0,33.0,30.20,ENE,68,0.0,0.0,100,0.00,,,0.00,Wunderground v.1.15,2013-01-21 05:35:00,
2013-01-20 21:40:00,32.9,32.9,30.20,ENE,68,0.0,0.0,100,0.00,,,0.00,Wunderground v.1.15,2013-01-21 05:40:00,
2013-01-20 21:45:00,32.8,32.8,30.20,ENE,68,0.0,0.0,100,0.00,,,0.00,Wunderground v.1.15,2013-01-21 05:45:00,
2013-01-20 21:50:00,32.7,32.7,30.20,ENE,68,0.0,0.0,100,0.00,,,0.00,Wunderground v.1.15,2013-01-21 05:50:00,
2013-01-20 21:55:00,32.6,32.6,30.20,ENE,68,0.0,0.0,100,0.00,,,0.00,Wunderground v.1.15,2013-01-21 05:55:00,
2013-01-20 22:00:00,32.5,32.5,30.20,ENE,68,0.0,0.0,100,0.00,,,0.00,Wunderground v.1.15,2013-01-21 06:00:00,
2013-01-20 22:10:00,32.2,32.2,30.20,ENE,68,0.0,0.0,100,0.00,,,0.00,Wunderground v.1.15,2013-01-21 06:10:00,
2013-01-20 22:15:00,32.3,32.3,30.20,ENE,68,0.0,0.0,100,0.00,,,0.00,Wunderground v.1.15,2013-01-21 06:15:00,
2013-01-20 22:20:00,32.3,32.3,30.20,ENE,68,0.0,0.0,100,0.00,,,0.00,Wunderground v.1.15,2013-01-21 06:20:00,
2013-01-20 22:25:00,32.2,32.2,30.21,ENE,68,0.0,0.0,100,0.00,,,0.00,Wunderground v.1.15,2013-01-21 06:25:00,
2013-01-20 22:30:00,32.1,32.1,30.21,ENE,68,0.0,0.0,100,0.00,,,0.00,Wunderground v.1.15,2013-01-21 06:30:00,
2013-01-20 22:35:00,32.0,32.0,30.21,ENE,68,0.0,0.0,100,0.00,,,0.00,Wunderground v.1.15,2013-01-21 06:35:00,
2013-01-20 22:45:00,31.8,31.8,30.22,ENE,68,0.0,0.0,100,0.00,,,0.00,Wunderground v.1.15,2013-01-21 06:45:00,
2013-01-20 22:50:00,31.7,31.7,30.22,ENE,68,0.0,0.0,100,0.00,,,0.00,Wunderground v.1.15,2013-01-21 06:50:00,
2013-01-20 22:55:00,31.6,31.6,30.22,ENE,68,0.0,0.0,100,0.00,,,0.00,Wunderground v.1.15,2013-01-21 06:55:00,
2013-01-20 23:00:00,31.7,31.7,30.22,ENE,68,0.0,0.0,100,0.00,,,0.00,Wunderground v.1.15,2013-01-21 07:00:00,
2013-01-20 23:05:00,31.8,31.8,30.21,ENE,68,0.0,0.0,100,0.00,,,0.00,Wunderground v.1.15,2013-01-21 07:05:00,
2013-01-20 23:10:00,31.8,31.8,30.21,ENE,68,0.0,0.0,100,0.00,,,0.00,Wunderground v.1.15,2013-01-21 07:10:00,
2013-01-20 23:20:00,31.7,31.7,30.22,ENE,68,0.0,0.0,100,0.00,,,0.00,Wunderground v.1.15,2013-01-21 07:20:00,
2013-01-20 23:25:00,31.6,31.6,30.22,ENE,68,0.0,0.0,100,0.00,,,0.00,Wunderground v.1.15,2013-01-21 07:25:00,
2013-01-20 23:30:00,31.6,31.6,30.22,ENE,68,0.0,0.0,100,0.00,,,0.00,Wunderground v.1.15,2013-01-21 07:30:00,
2013-01-20 23:35:00,31.4,31.4,30.22,ENE,68,0.0,0.0,100,0.00,,,0.00,Wunderground v.1.15,2013-01-21 07:35:00,
2013-01-20 23:40:00,31.4,31.4,30.22,ENE,68,0.0,0.0,100,0.00,,,0.00,Wunderground v.1.15,2013-01-21 07:40:00,
2013-01-20 23:50:00,31.4,31.4,30.22,ESE,106,0.0,0.0,100,0.00,,,0.00,Wunderground v.1.15,2013-01-21 07:50:00,
2013-01-20 23:55:00,31.4,31.4,30.22,East,96,0.0,0.0,100,0.00,,,0.00,Wunderground v.1.15,2013-01-21 07:55:00,